Time;durP1;ratioP1;P1;durP2;ratioP2;P2;SDS_P1;SDS_P2;PMS_P1;PMS_P2;Temp;Humidity;BMP_temperature;BMP_pressure;BME280_temperature;BME280_humidity;BME280_pressure;Samples;Min_cycle;Max_cycle;Signal;HPM_P1;HPM_P2
2022/08/26 00:01:10;;;;;;;38.20;34.03;;;21.70;99.90;;;;;;6150427;23;20013;-86
2022/08/26 00:03:35;;;;;;;38.55;33.53;;;21.60;99.90;;;;;;6149478;23;20416;-86
2022/08/26 00:06:01;;;;;;;41.10;35.03;;;21.60;99.90;;;;;;6150283;23;20101;-86
2022/08/26 00:08:26;;;;;;;39.13;34.85;;;21.60;99.90;;;;;;6176206;23;20113;-86
2022/08/26 00:10:52;;;;;;;32.53;27.90;;;21.50;99.90;;;;;;6149612;23;20031;-86
2022/08/26 00:13:18;;;;;;;37.75;31.80;;;21.50;99.90;;;;;;6149447;23;20048;-86
2022/08/26 00:15:45;;;;;;;41.80;36.03;;;21.40;99.90;;;;;;6149915;23;20017;-86
2022/08/26 00:18:11;;;;;;;41.50;35.67;;;21.40;99.90;;;;;;6150030;23;20454;-86
2022/08/26 00:20:38;;;;;;;40.75;35.53;;;21.30;99.90;;;;;;6176415;23;20052;-86
2022/08/26 00:23:04;;;;;;;43.83;37.30;;;21.30;99.90;;;;;;6125249;23;20381;-86
2022/08/26 00:25:30;;;;;;;32.30;28.67;;;21.30;99.90;;;;;;6150771;22;20032;-86
2022/08/26 00:27:56;;;;;;;37.22;32.20;;;21.20;99.90;;;;;;6158544;23;20433;-86
2022/08/26 00:30:25;;;;;;;42.78;37.38;;;21.20;99.90;;;;;;6176889;23;20017;-86
2022/08/26 00:32:51;;;;;;;41.67;37.17;;;21.10;99.90;;;;;;6174852;23;20021;-86
2022/08/26 00:35:17;;;;;;;44.28;36.35;;;21.10;99.90;;;;;;6174782;23;20047;-86
2022/08/26 00:37:43;;;;;;;42.15;36.78;;;21.00;99.90;;;;;;6149986;23;20522;-86
2022/08/26 00:40:14;;;;;;;43.97;35.67;;;21.00;99.90;;;;;;6176800;23;20055;-86
2022/08/26 00:42:39;;;;;;;42.10;34.60;;;21.00;99.90;;;;;;6174631;23;20057;-86
2022/08/26 00:45:06;;;;;;;43.15;34.40;;;21.00;99.90;;;;;;6176242;22;20017;-86
2022/08/26 00:47:42;;;;;;;37.45;33.08;;;21.00;99.90;;;;;;6175235;23;20333;-86
2022/08/26 00:50:13;;;;;;;38.17;32.70;;;21.00;99.90;;;;;;6175001;23;20064;-86
2022/08/26 00:52:39;;;;;;;40.17;33.50;;;21.00;99.90;;;;;;6174817;23;20020;-86
2022/08/26 00:55:19;;;;;;;39.88;33.20;;;21.10;99.90;;;;;;6176612;23;20071;-86
2022/08/26 00:57:49;;;;;;;42.33;33.97;;;21.00;99.90;;;;;;6173842;23;20036;-86
2022/08/26 01:00:21;;;;;;;38.47;31.98;;;21.00;99.90;;;;;;6174462;23;20453;-86
2022/08/26 01:02:48;;;;;;;43.15;31.52;;;21.10;99.90;;;;;;6176307;23;20009;-86
2022/08/26 01:05:15;;;;;;;41.30;30.70;;;21.00;99.90;;;;;;6174577;23;20025;-86
2022/08/26 01:07:41;;;;;;;43.85;32.22;;;21.00;99.90;;;;;;6176297;23;20021;-86
2022/08/26 01:10:15;;;;;;;37.80;29.92;;;20.90;99.90;;;;;;6174438;23;20021;-86
2022/08/26 01:13:01;;;;;;;35.53;27.23;;;20.90;99.90;;;;;;6174836;23;20333;-86
2022/08/26 01:15:41;;;;;;;37.60;27.42;;;20.90;99.90;;;;;;6176641;23;20339;-86
2022/08/26 01:18:07;;;;;;;35.13;26.25;;;21.00;99.90;;;;;;6175396;23;20017;-86
2022/08/26 01:20:57;;;;;;;36.05;27.98;;;21.00;99.90;;;;;;6174062;23;20013;-86
2022/08/26 01:23:27;;;;;;;43.33;29.10;;;21.00;99.90;;;;;;6174410;23;20017;-86
2022/08/26 01:25:58;;;;;;;33.83;23.75;;;21.00;99.90;;;;;;6175685;23;20025;-86
2022/08/26 01:28:27;;;;;;;32.17;26.80;;;21.00;99.90;;;;;;6148264;23;20017;-86
2022/08/26 01:30:54;;;;;;;32.20;25.27;;;21.00;99.90;;;;;;6171873;23;20361;-86
2022/08/26 01:33:25;;;;;;;36.17;26.58;;;21.00;99.90;;;;;;6173022;23;20021;-86
2022/08/26 01:35:52;;;;;;;38.17;27.67;;;21.00;99.90;;;;;;6174100;23;20224;-86
2022/08/26 01:38:18;;;;;;;30.30;23.25;;;21.00;99.90;;;;;;6174727;23;20025;-86
2022/08/26 01:40:44;;;;;;;33.60;25.20;;;21.00;99.90;;;;;;6171421;23;20013;-86
2022/08/26 01:43:16;;;;;;;34.65;25.13;;;21.00;99.90;;;;;;6172904;23;20017;-86
2022/08/26 01:45:43;;;;;;;34.92;24.02;;;20.90;99.90;;;;;;6172433;23;20051;-86
2022/08/26 01:48:13;;;;;;;33.08;25.20;;;21.00;99.90;;;;;;6174508;23;20017;-86
2022/08/26 01:50:39;;;;;;;35.88;22.13;;;21.00;99.90;;;;;;6172298;23;20017;-86
2022/08/26 01:53:09;;;;;;;35.38;24.77;;;20.90;99.90;;;;;;6172403;23;20021;-86
2022/08/26 01:55:37;;;;;;;33.08;23.55;;;21.00;99.90;;;;;;6146903;23;20456;-86
2022/08/26 01:58:11;;;;;;;42.78;25.95;;;21.00;99.90;;;;;;6174381;23;20021;-86
2022/08/26 02:00:37;;;;;;;38.70;25.58;;;20.90;99.90;;;;;;6172228;23;20463;-86
2022/08/26 02:03:17;;;;;;;38.78;24.48;;;20.90;99.90;;;;;;6172359;22;20020;-86
2022/08/26 02:05:46;;;;;;;37.17;24.45;;;20.90;99.90;;;;;;6147526;23;20017;-86
2022/08/26 02:08:13;;;;;;;32.55;22.88;;;20.80;99.90;;;;;;6146683;23;20025;-86
2022/08/26 02:10:38;;;;;;;36.00;25.27;;;20.90;99.90;;;;;;6173222;23;20345;-86
2022/08/26 02:13:08;;;;;;;42.78;25.33;;;20.80;99.90;;;;;;6172718;22;20027;-86
2022/08/26 02:15:34;;;;;;;41.05;24.67;;;20.80;99.90;;;;;;6173846;23;20400;-86
2022/08/26 02:18:02;;;;;;;41.00;25.33;;;21.00;99.90;;;;;;6172329;23;20111;-86
2022/08/26 02:20:28;;;;;;;36.28;21.08;;;20.70;99.90;;;;;;6174065;23;20144;-86
2022/08/26 02:22:54;;;;;;;31.17;20.50;;;20.90;99.90;;;;;;6146733;23;20053;-86
2022/08/26 02:25:49;;;;;;;31.55;20.77;;;20.90;99.90;;;;;;6174071;22;20056;-86
2022/08/26 02:28:16;;;;;;;41.83;24.75;;;20.90;99.90;;;;;;6128710;23;1044660;-86
2022/08/26 02:30:43;;;;;;;33.47;22.35;;;20.90;99.90;;;;;;6173917;23;20420;-86
2022/08/26 02:33:08;;;;;;;35.83;22.38;;;20.90;99.90;;;;;;6174434;23;20097;-87
2022/08/26 02:35:35;;;;;;;34.80;24.27;;;20.90;99.90;;;;;;6174035;22;20017;-86
2022/08/26 02:38:01;;;;;;;40.90;26.63;;;20.90;99.90;;;;;;6175176;23;20441;-86
2022/08/26 02:40:30;;;;;;;30.77;23.75;;;20.90;99.90;;;;;;6174460;22;20020;-86
2022/08/26 02:42:56;;;;;;;35.88;24.35;;;20.90;99.90;;;;;;6175995;23;20021;-86
2022/08/26 02:45:22;;;;;;;35.45;24.02;;;20.90;99.90;;;;;;6173983;22;20066;-86
2022/08/26 02:47:49;;;;;;;42.15;26.67;;;20.90;99.90;;;;;;6175757;23;20013;-86
2022/08/26 02:50:15;;;;;;;36.63;26.08;;;20.80;99.90;;;;;;6174513;23;20017;-86
2022/08/26 02:52:40;;;;;;;46.65;26.52;;;20.90;99.90;;;;;;6173623;22;20024;-86
2022/08/26 02:55:06;;;;;;;35.20;24.90;;;20.90;99.90;;;;;;6174191;22;20013;-87
2022/08/26 02:57:32;;;;;;;38.67;24.67;;;20.90;99.90;;;;;;6174358;23;20013;-86
2022/08/26 02:59:59;;;;;;;36.08;26.15;;;20.90;99.90;;;;;;6174386;23;20016;-86
2022/08/26 03:02:26;;;;;;;38.05;24.67;;;20.90;99.90;;;;;;6173945;23;20016;-86
2022/08/26 03:04:52;;;;;;;37.25;24.92;;;20.90;99.90;;;;;;6174218;23;20013;-86
2022/08/26 03:07:18;;;;;;;32.08;21.77;;;21.00;99.90;;;;;;6175212;22;20376;-86
2022/08/26 03:09:44;;;;;;;34.42;23.52;;;21.30;99.90;;;;;;6175806;23;20402;-86
2022/08/26 03:12:10;;;;;;;35.38;23.95;;;21.00;99.90;;;;;;6175903;22;20028;-86
2022/08/26 03:14:36;;;;;;;41.00;26.52;;;21.00;99.90;;;;;;6174288;22;20426;-86
2022/08/26 03:17:02;;;;;;;34.03;20.63;;;21.00;99.90;;;;;;6175671;23;20017;-86
2022/08/26 03:19:29;;;;;;;29.92;21.92;;;20.90;99.90;;;;;;6149387;23;20024;-86
2022/08/26 03:21:54;;;;;;;30.10;22.92;;;21.00;99.90;;;;;;6172817;22;20025;-86
2022/08/26 03:24:20;;;;;;;35.78;19.90;;;21.00;99.90;;;;;;6175708;22;20067;-85
2022/08/26 03:26:45;;;;;;;35.25;22.40;;;21.00;99.90;;;;;;6175397;22;20310;-85
2022/08/26 03:31:55;;;;;;;29.42;19.92;;;21.00;99.90;;;;;;6148489;23;20024;-86
2022/08/26 03:34:22;;;;;;;34.15;20.42;;;21.00;99.90;;;;;;6175614;23;20329;-86
2022/08/26 03:36:48;;;;;;;36.88;22.50;;;21.00;99.90;;;;;;6148382;23;20028;-86
2022/08/26 03:39:14;;;;;;;30.90;21.20;;;20.90;99.90;;;;;;6175522;23;20049;-86
2022/08/26 03:41:40;;;;;;;31.02;20.27;;;20.90;99.90;;;;;;6175597;22;20017;-86
2022/08/26 03:44:09;;;;;;;31.05;20.02;;;21.00;99.90;;;;;;6149472;23;20394;-86
2022/08/26 03:46:37;;;;;;;27.80;19.00;;;21.00;99.90;;;;;;6148572;23;20017;-86
2022/08/26 03:49:04;;;;;;;34.85;19.45;;;21.00;99.90;;;;;;6175787;23;20090;-87
2022/08/26 03:51:31;;;;;;;28.60;18.60;;;21.00;99.90;;;;;;6148399;23;20024;-86
2022/08/26 03:53:57;;;;;;;29.65;18.90;;;21.00;99.90;;;;;;6124242;23;20024;-86
2022/08/26 03:56:23;;;;;;;31.98;19.25;;;21.00;99.90;;;;;;6175771;23;20043;-86
2022/08/26 03:58:49;;;;;;;35.50;21.15;;;21.00;99.90;;;;;;6149016;23;20441;-86
2022/08/26 04:01:15;;;;;;;27.05;17.17;;;20.90;99.90;;;;;;6175498;23;20032;-86
2022/08/26 04:03:58;;;;;;;23.95;15.85;;;20.90;99.90;;;;;;6148593;23;20009;-86
2022/08/26 04:06:33;;;;;;;27.38;16.45;;;20.90;99.90;;;;;;6123788;23;20071;-86
2022/08/26 04:09:02;;;;;;;27.13;17.15;;;20.80;99.90;;;;;;6124314;23;20052;-86
2022/08/26 04:11:30;;;;;;;26.52;15.35;;;21.00;99.90;;;;;;6149188;22;20021;-86
2022/08/26 04:14:01;;;;;;;25.38;15.75;;;20.90;99.90;;;;;;6148633;23;20056;-86
2022/08/26 04:16:28;;;;;;;26.85;16.85;;;20.80;99.90;;;;;;6148982;22;20017;-86
2022/08/26 04:18:55;;;;;;;32.45;16.85;;;21.00;99.90;;;;;;6174368;23;20021;-86
2022/08/26 04:21:20;;;;;;;26.20;16.50;;;20.80;99.90;;;;;;6124179;23;20070;-86
2022/08/26 04:23:47;;;;;;;27.75;16.33;;;20.80;99.90;;;;;;6148142;23;20095;-86
2022/08/26 04:26:12;;;;;;;28.08;16.05;;;20.90;99.90;;;;;;6123825;23;20017;-86
2022/08/26 04:28:38;;;;;;;27.90;15.98;;;20.80;99.90;;;;;;6166738;23;20040;-86
2022/08/26 04:31:04;;;;;;;24.38;15.13;;;21.10;99.90;;;;;;6173232;22;20021;-86
2022/08/26 04:33:29;;;;;;;27.08;15.60;;;20.80;99.90;;;;;;6173737;22;20017;-86
2022/08/26 04:36:00;;;;;;;24.20;14.93;;;20.80;99.90;;;;;;6176200;22;20066;-86
2022/08/26 04:38:26;;;;;;;24.70;13.00;;;20.90;99.90;;;;;;6176703;23;20021;-86
2022/08/26 04:40:51;;;;;;;23.48;13.38;;;20.90;99.90;;;;;;6149622;23;20375;-86
2022/08/26 04:43:17;;;;;;;22.42;13.95;;;20.90;99.90;;;;;;6174940;22;20078;-86
2022/08/26 04:45:42;;;;;;;25.90;13.95;;;20.90;99.90;;;;;;6174316;22;20016;-86
2022/08/26 04:48:08;;;;;;;26.13;14.65;;;21.00;99.90;;;;;;6174743;23;20043;-86
2022/08/26 04:50:34;;;;;;;27.08;14.50;;;20.90;99.90;;;;;;6176252;22;20021;-86
2022/08/26 04:52:59;;;;;;;23.92;13.70;;;21.00;99.90;;;;;;6176701;22;20082;-86
2022/08/26 04:55:25;;;;;;;19.55;13.32;;;20.90;99.90;;;;;;6177008;23;20017;-86
2022/08/26 04:57:52;;;;;;;23.65;14.68;;;20.90;99.90;;;;;;6174073;22;20023;-86
2022/08/26 05:00:18;;;;;;;20.55;14.18;;;20.90;99.90;;;;;;6175259;23;20009;-86
2022/08/26 05:02:44;;;;;;;24.38;13.70;;;20.90;99.90;;;;;;6174121;23;20013;-86
2022/08/26 05:05:11;;;;;;;23.63;14.60;;;20.80;99.90;;;;;;6176832;23;20031;-86
2022/08/26 05:07:36;;;;;;;23.05;12.73;;;20.90;99.90;;;;;;6174399;23;20017;-86
2022/08/26 05:10:03;;;;;;;20.30;13.23;;;20.90;99.90;;;;;;6175008;23;20063;-86
2022/08/26 05:12:30;;;;;;;27.25;14.68;;;20.90;99.90;;;;;;6176697;23;20108;-86
2022/08/26 05:14:56;;;;;;;23.75;14.95;;;20.80;99.90;;;;;;6174189;23;20522;-86
2022/08/26 05:17:21;;;;;;;24.13;15.48;;;20.80;99.90;;;;;;6175849;23;20040;-86
2022/08/26 05:19:49;;;;;;;19.27;12.43;;;20.80;99.90;;;;;;6174529;22;20453;-86
2022/08/26 05:22:16;;;;;;;25.00;14.23;;;20.80;99.90;;;;;;6176462;23;20095;-86
2022/08/26 05:24:42;;;;;;;25.52;15.75;;;20.90;99.90;;;;;;6174679;23;20384;-86
2022/08/26 05:27:08;;;;;;;23.40;15.23;;;21.00;99.90;;;;;;6174746;23;20050;-86
2022/08/26 05:29:34;;;;;;;24.77;15.52;;;20.90;99.90;;;;;;6174247;23;20027;-86
2022/08/26 05:32:00;;;;;;;18.15;12.45;;;20.90;99.90;;;;;;6174095;23;20048;-86
2022/08/26 05:34:26;;;;;;;27.88;15.75;;;20.90;99.90;;;;;;6175122;23;20017;-86
2022/08/26 05:36:52;;;;;;;25.80;14.65;;;20.90;99.90;;;;;;6176034;23;20341;-86
2022/08/26 05:39:18;;;;;;;23.73;13.52;;;20.90;99.90;;;;;;6174448;22;20013;-86
2022/08/26 05:41:44;;;;;;;27.75;14.75;;;20.90;99.90;;;;;;6176394;23;20368;-85
2022/08/26 05:44:12;;;;;;;25.35;13.80;;;20.90;99.90;;;;;;6149293;23;20403;-86
2022/08/26 05:46:39;;;;;;;22.85;13.63;;;20.90;99.90;;;;;;6173355;23;20449;-86
2022/08/26 05:49:06;;;;;;;22.70;12.57;;;21.00;99.90;;;;;;6174178;23;20491;-86
2022/08/26 05:51:33;;;;;;;20.73;13.23;;;21.00;99.90;;;;;;6149708;23;20031;-86
2022/08/26 05:54:01;;;;;;;22.27;12.50;;;21.00;99.90;;;;;;6174623;23;20013;-86
2022/08/26 05:56:27;;;;;;;22.17;12.57;;;21.00;99.90;;;;;;6176645;23;20028;-86
2022/08/26 05:58:53;;;;;;;21.77;12.30;;;21.00;99.90;;;;;;6176179;23;20017;-86
2022/08/26 06:01:25;;;;;;;25.30;13.73;;;21.10;99.90;;;;;;6175533;23;20021;-86
2022/08/26 06:03:53;;;;;;;22.70;13.23;;;21.00;99.90;;;;;;6173775;23;20024;-86
2022/08/26 06:06:25;;;;;;;21.27;12.80;;;21.10;99.90;;;;;;6149816;23;20033;-86
2022/08/26 06:08:51;;;;;;;29.77;13.50;;;21.10;99.90;;;;;;6175590;23;20021;-86
2022/08/26 06:11:24;;;;;;;24.27;12.63;;;21.10;99.90;;;;;;6174627;23;20437;-86
2022/08/26 06:13:50;;;;;;;25.08;13.00;;;21.00;99.90;;;;;;6149175;23;20066;-86
2022/08/26 06:16:18;;;;;;;22.98;12.27;;;21.00;99.90;;;;;;6173793;23;20391;-86
2022/08/26 06:18:45;;;;;;;23.75;12.82;;;21.30;99.90;;;;;;6149217;23;20013;-86
2022/08/26 06:21:17;;;;;;;23.70;12.27;;;21.20;99.90;;;;;;6174580;23;20020;-86
2022/08/26 06:26:30;;;;;;;29.20;11.23;;;21.30;99.90;;;;;;6174547;23;20088;-86
2022/08/26 06:28:56;;;;;;;23.25;10.35;;;21.40;99.90;;;;;;6173822;23;20025;-86
2022/08/26 06:31:24;;;;;;;23.52;10.73;;;21.40;99.90;;;;;;6173691;23;20499;-86
2022/08/26 06:33:49;;;;;;;20.27;10.80;;;21.40;99.90;;;;;;6149322;23;20062;-86
2022/08/26 06:36:21;;;;;;;20.95;10.68;;;21.60;99.90;;;;;;6176319;23;20364;-86
2022/08/26 06:38:48;;;;;;;26.90;10.75;;;21.60;99.90;;;;;;6173869;23;20025;-86
2022/08/26 06:41:14;;;;;;;20.42;9.45;;;21.50;99.90;;;;;;6174208;23;20009;-86
2022/08/26 06:43:40;;;;;;;19.83;9.20;;;21.70;99.90;;;;;;6148699;22;20032;-86
2022/08/26 06:46:09;;;;;;;20.17;9.60;;;21.60;99.90;;;;;;6174737;23;20013;-86
2022/08/26 06:48:35;;;;;;;19.92;8.75;;;21.60;99.90;;;;;;6174365;23;20091;-86
2022/08/26 06:51:05;;;;;;;22.70;9.32;;;21.70;99.90;;;;;;6149195;23;20060;-86
2022/08/26 06:53:30;;;;;;;20.73;8.88;;;21.70;99.90;;;;;;6149368;22;20197;-86
2022/08/26 06:55:56;;;;;;;20.90;8.55;;;21.70;99.90;;;;;;6173883;23;20067;-86
2022/08/26 06:58:22;;;;;;;17.52;8.25;;;21.70;99.90;;;;;;6173728;23;20279;-86
2022/08/26 07:00:47;;;;;;;20.08;8.43;;;21.80;99.90;;;;;;6174122;23;20045;-86
2022/08/26 07:03:13;;;;;;;15.82;7.47;;;21.80;99.90;;;;;;6149252;23;20054;-86
2022/08/26 07:05:39;;;;;;;20.13;8.23;;;21.70;99.90;;;;;;6173612;23;20396;-86
2022/08/26 07:08:05;;;;;;;18.48;8.95;;;21.80;99.90;;;;;;6149482;23;20021;-86
2022/08/26 07:10:31;;;;;;;20.13;9.02;;;21.80;99.90;;;;;;6174691;23;20043;-86
2022/08/26 07:12:56;;;;;;;15.65;8.63;;;21.80;99.90;;;;;;6173568;23;20032;-86
2022/08/26 07:15:22;;;;;;;21.92;7.55;;;21.90;99.90;;;;;;6173759;23;20018;-86
2022/08/26 07:17:47;;;;;;;15.52;7.15;;;22.10;99.90;;;;;;6173896;23;20024;-86
2022/08/26 07:20:13;;;;;;;15.45;7.22;;;21.90;99.90;;;;;;6149071;23;20025;-86
2022/08/26 07:22:39;;;;;;;18.80;8.20;;;22.00;99.90;;;;;;6173511;23;20027;-86
2022/08/26 07:25:07;;;;;;;16.30;8.27;;;22.00;99.90;;;;;;6175822;23;20532;-86
2022/08/26 07:27:34;;;;;;;22.08;8.23;;;22.00;99.90;;;;;;6148416;22;20020;-86
2022/08/26 07:29:59;;;;;;;21.05;7.57;;;22.00;99.90;;;;;;6174280;23;20049;-86
2022/08/26 07:32:25;;;;;;;16.30;7.55;;;22.00;99.90;;;;;;6149151;23;20017;-86
2022/08/26 07:34:51;;;;;;;17.15;7.82;;;22.00;99.90;;;;;;6173501;22;20399;-85
2022/08/26 07:37:16;;;;;;;14.98;7.82;;;22.00;99.90;;;;;;6174491;23;20019;-86
2022/08/26 07:39:43;;;;;;;14.40;7.75;;;22.00;99.90;;;;;;6174311;23;20017;-86
2022/08/26 07:42:11;;;;;;;16.23;8.27;;;22.10;99.90;;;;;;6173233;22;20461;-86
2022/08/26 07:44:38;;;;;;;19.17;8.13;;;21.70;99.90;;;;;;6148485;22;20009;-86
2022/08/26 07:47:04;;;;;;;16.98;8.43;;;21.90;99.90;;;;;;6175820;22;20081;-86
2022/08/26 07:49:30;;;;;;;23.90;9.00;;;21.90;99.90;;;;;;6149135;22;20515;-86
2022/08/26 07:51:56;;;;;;;15.32;7.13;;;22.00;99.90;;;;;;6148484;23;20017;-86
2022/08/26 07:54:22;;;;;;;14.80;6.90;;;22.00;99.90;;;;;;6173623;23;20337;-86
2022/08/26 07:56:48;;;;;;;22.83;6.78;;;22.00;99.90;;;;;;6148066;23;20044;-86
2022/08/26 07:59:15;;;;;;;16.95;6.43;;;21.90;99.90;;;;;;6173735;23;20028;-86
2022/08/26 08:01:41;;;;;;;15.43;6.45;;;21.90;99.90;;;;;;6174475;23;20100;-86
2022/08/26 08:04:07;;;;;;;12.45;5.25;;;21.80;99.90;;;;;;6148885;23;20053;-86
2022/08/26 08:06:33;;;;;;;11.63;5.55;;;21.80;99.90;;;;;;6175246;23;20383;-85
2022/08/26 08:08:59;;;;;;;14.68;5.97;;;21.90;99.90;;;;;;6174296;23;20020;-86
2022/08/26 08:11:27;;;;;;;12.23;5.28;;;21.90;99.90;;;;;;6176566;23;20028;-86
2022/08/26 08:13:54;;;;;;;12.57;5.13;;;21.90;99.90;;;;;;6176318;22;20119;-86
2022/08/26 08:16:20;;;;;;;16.92;5.78;;;21.80;99.90;;;;;;6176841;22;20332;-87
2022/08/26 08:18:45;;;;;;;17.05;4.85;;;21.90;99.90;;;;;;6176467;23;20017;-86
2022/08/26 08:21:11;;;;;;;15.15;4.70;;;21.90;99.90;;;;;;6176812;23;20023;-86
2022/08/26 08:23:37;;;;;;;11.15;4.45;;;21.90;99.90;;;;;;6176311;23;20064;-86
2022/08/26 08:26:05;;;;;;;13.60;5.20;;;22.20;99.90;;;;;;6176513;23;20431;-86
2022/08/26 08:28:31;;;;;;;13.10;4.80;;;21.90;99.90;;;;;;6176273;23;20048;-86
2022/08/26 08:30:56;;;;;;;15.30;4.20;;;21.90;99.90;;;;;;6149720;23;20021;-86
2022/08/26 08:33:22;;;;;;;13.27;3.50;;;22.00;99.90;;;;;;6150212;23;20017;-86
2022/08/26 08:35:48;;;;;;;10.23;3.45;;;21.90;99.90;;;;;;6175950;23;20009;-86
2022/08/26 08:38:14;;;;;;;14.07;2.90;;;21.90;99.90;;;;;;6125709;23;20028;-87
2022/08/26 08:40:43;;;;;;;9.50;2.92;;;21.80;99.90;;;;;;6175521;23;20013;-86
2022/08/26 08:43:16;;;;;;;10.30;2.90;;;21.80;99.90;;;;;;6150528;23;20041;-86
2022/08/26 08:45:48;;;;;;;9.10;2.92;;;21.80;99.90;;;;;;6175979;23;20449;-86
2022/08/26 08:48:37;;;;;;;11.93;3.03;;;21.80;99.90;;;;;;6176552;23;20044;-86
2022/08/26 08:51:24;;;;;;;10.40;2.22;;;21.80;99.90;;;;;;6176336;23;20353;-86
2022/08/26 08:53:52;;;;;;;8.63;2.63;;;21.80;99.90;;;;;;6176335;23;20391;-86
2022/08/26 08:56:37;;;;;;;12.70;2.83;;;21.80;99.90;;;;;;6176227;23;20013;-86
2022/08/26 08:59:09;;;;;;;13.88;2.50;;;22.00;99.90;;;;;;6149763;23;20453;-86
2022/08/26 09:01:55;;;;;;;13.85;3.33;;;22.00;99.90;;;;;;6125004;23;20055;-86
2022/08/26 09:04:50;;;;;;;10.55;2.50;;;22.00;99.90;;;;;;6125220;23;20021;-86
2022/08/26 09:07:19;;;;;;;8.82;2.58;;;22.10;99.90;;;;;;6125033;23;20021;-86
2022/08/26 09:09:58;;;;;;;8.60;2.63;;;22.10;99.90;;;;;;6176323;23;20354;-87
2022/08/26 09:12:31;;;;;;;13.05;2.35;;;22.20;99.90;;;;;;6176533;23;20020;-86
2022/08/26 09:15:03;;;;;;;11.20;2.17;;;22.20;99.90;;;;;;6175634;23;20430;-86
2022/08/26 09:17:56;;;;;;;8.68;2.58;;;22.10;99.90;;;;;;6125450;23;20070;-86
2022/08/26 09:20:35;;;;;;;8.70;2.30;;;22.00;99.90;;;;;;6125436;23;20078;-86
2022/08/26 09:23:01;;;;;;;8.65;2.78;;;22.00;99.90;;;;;;6176678;23;20017;-86
2022/08/26 09:25:27;;;;;;;9.20;2.25;;;22.00;99.90;;;;;;6124904;23;20457;-86
2022/08/26 09:27:53;;;;;;;8.77;2.00;;;22.10;99.90;;;;;;6130907;23;20088;-86
2022/08/26 09:30:29;;;;;;;10.50;2.00;;;22.00;99.90;;;;;;6175039;23;20090;-86
2022/08/26 09:33:02;;;;;;;7.78;1.70;;;22.00;99.90;;;;;;6173967;23;20021;-86
2022/08/26 09:35:33;;;;;;;6.03;1.70;;;22.00;99.90;;;;;;6174851;22;20017;-86
2022/08/26 09:37:59;;;;;;;10.32;2.28;;;21.90;99.90;;;;;;6174067;22;20018;-86
2022/08/26 09:40:55;;;;;;;10.45;2.13;;;21.90;99.90;;;;;;6149385;22;20019;-86
2022/08/26 09:43:20;;;;;;;11.95;2.00;;;21.90;99.90;;;;;;6174473;23;20449;-86
2022/08/26 09:45:53;;;;;;;7.13;2.17;;;21.90;99.90;;;;;;6174197;23;20050;-86
2022/08/26 09:48:34;;;;;;;8.88;1.67;;;21.90;99.90;;;;;;6176451;22;20025;-86
2022/08/26 09:51:02;;;;;;;11.50;1.80;;;22.00;99.90;;;;;;6176245;23;20055;-86
2022/08/26 09:53:36;;;;;;;8.85;2.03;;;22.10;99.90;;;;;;6175911;23;20009;-86
2022/08/26 09:56:24;;;;;;;12.17;2.43;;;22.10;99.90;;;;;;6176621;22;20017;-86
2022/08/26 09:58:50;;;;;;;7.93;2.03;;;22.10;99.90;;;;;;6174460;22;20017;-86
2022/08/26 10:01:22;;;;;;;11.52;2.13;;;22.00;99.90;;;;;;6174569;22;20017;-86
2022/08/26 10:03:49;;;;;;;11.43;2.45;;;22.00;99.90;;;;;;6149563;23;20021;-86
2022/08/26 10:06:20;;;;;;;5.70;1.67;;;22.00;99.90;;;;;;6174713;23;20013;-86
2022/08/26 10:08:50;;;;;;;8.38;2.17;;;22.00;99.90;;;;;;6175372;23;20025;-86
2022/08/26 10:11:35;;;;;;;9.52;2.20;;;22.10;99.90;;;;;;6176429;22;20108;-86
2022/08/26 10:14:21;;;;;;;9.38;2.50;;;22.20;99.90;;;;;;6176124;22;20564;-86
2022/08/26 10:16:53;;;;;;;7.18;2.03;;;22.30;99.90;;;;;;6149509;22;20028;-86
2022/08/26 10:19:25;;;;;;;8.82;1.80;;;22.40;99.90;;;;;;6174405;22;20017;-86
2022/08/26 10:22:06;;;;;;;10.68;2.10;;;22.50;99.90;;;;;;6175247;22;20092;-86
2022/08/26 10:24:47;;;;;;;6.50;2.10;;;22.50;99.90;;;;;;6176386;23;20040;-86
2022/08/26 10:27:33;;;;;;;7.97;1.98;;;22.60;99.90;;;;;;6176512;22;20021;-86
2022/08/26 10:30:05;;;;;;;8.85;2.10;;;23.00;99.90;;;;;;6125349;23;20017;-86
2022/08/26 10:32:41;;;;;;;7.90;1.83;;;22.90;99.90;;;;;;6148889;23;20025;-86
2022/08/26 10:35:10;;;;;;;8.40;2.88;;;22.90;99.90;;;;;;6124879;23;20013;-86
2022/08/26 10:37:40;;;;;;;6.60;1.70;;;23.00;99.90;;;;;;6148498;23;20069;-86
2022/08/26 10:40:14;;;;;;;13.15;2.38;;;22.70;99.90;;;;;;6175940;23;20017;-86
2022/08/26 10:42:58;;;;;;;;;;;22.70;99.90;;;;;;6150043;23;20017;-86
2022/08/26 10:45:31;;;;;;;6.43;1.80;;;22.60;99.90;;;;;;6125025;23;19916;-86
2022/08/26 10:48:07;;;;;;;12.15;2.88;;;22.60;99.90;;;;;;6148827;23;20472;-86
2022/08/26 10:50:40;;;;;;;9.50;1.88;;;22.50;99.90;;;;;;6124243;23;20500;-86
2022/08/26 10:53:24;;;;;;;12.35;2.15;;;22.40;99.90;;;;;;6149314;23;20025;-86
2022/08/26 10:55:56;;;;;;;16.10;2.60;;;22.30;99.90;;;;;;6175271;23;20362;-86
2022/08/26 10:59:00;;;;;;;13.65;2.20;;;22.20;99.90;;;;;;6175220;23;20023;-86
2022/08/26 11:01:56;;;;;;;9.70;2.03;;;22.20;99.90;;;;;;6175147;23;20025;-86
2022/08/26 11:04:29;;;;;;;16.83;2.97;;;22.20;99.90;;;;;;6178718;23;20252;-86
2022/08/26 11:07:32;;;;;;;7.45;1.90;;;22.10;99.90;;;;;;6175173;23;20013;-86
2022/08/26 11:10:17;;;;;;;7.78;2.22;;;22.20;99.90;;;;;;6175830;23;20017;-86
2022/08/26 11:12:44;;;;;;;8.75;2.45;;;22.20;99.90;;;;;;6175812;23;20318;-86
2022/08/26 11:15:11;;;;;;;11.98;2.17;;;22.20;99.90;;;;;;6149263;23;20017;-86
2022/08/26 11:17:46;;;;;;;11.63;2.13;;;22.20;99.90;;;;;;6149012;23;20432;-86
2022/08/26 11:20:32;;;;;;;9.23;1.83;;;22.30;99.90;;;;;;6124252;23;20049;-86
2022/08/26 11:23:21;;;;;;;6.88;1.77;;;22.30;99.90;;;;;;6149518;23;20138;-86
2022/08/26 11:26:09;;;;;;;8.88;2.15;;;22.30;99.90;;;;;;6131727;23;20028;-86
2022/08/26 11:28:46;;;;;;;9.07;2.22;;;22.40;99.90;;;;;;6163580;23;20064;-86
2022/08/26 11:31:24;;;;;;;6.47;2.15;;;22.40;99.90;;;;;;6174096;23;20018;-86
2022/08/26 11:34:01;;;;;;;9.00;2.42;;;22.40;99.90;;;;;;6172660;23;20096;-86
2022/08/26 11:36:44;;;;;;;8.93;1.85;;;22.50;99.90;;;;;;6174062;22;20530;-86
2022/08/26 11:39:23;;;;;;;10.50;2.03;;;22.40;99.90;;;;;;6175549;23;20100;-86
2022/08/26 11:41:51;;;;;;;9.23;2.00;;;22.40;99.90;;;;;;6173566;22;20063;-86
2022/08/26 11:44:27;;;;;;;6.78;1.90;;;22.40;99.90;;;;;;6174516;22;20054;-86
2022/08/26 11:46:54;;;;;;;8.32;1.90;;;22.40;99.90;;;;;;6176610;22;20484;-86
2022/08/26 11:49:20;;;;;;;8.70;2.13;;;22.20;99.90;;;;;;6174645;22;20031;-85
2022/08/26 11:51:46;;;;;;;6.57;2.08;;;22.20;99.90;;;;;;6176069;23;20024;-86
2022/08/26 11:54:18;;;;;;;6.28;1.85;;;22.20;99.90;;;;;;6176462;22;20453;-86
2022/08/26 11:56:47;;;;;;;7.30;2.47;;;22.20;99.90;;;;;;6174417;22;20036;-86
2022/08/26 11:59:21;;;;;;;5.65;1.95;;;22.30;99.90;;;;;;6176592;23;20471;-86
2022/08/26 12:01:50;;;;;;;12.20;2.00;;;22.30;99.90;;;;;;6174871;22;20345;-86
2022/08/26 12:04:32;;;;;;;6.88;2.13;;;22.40;99.90;;;;;;6176195;22;20337;-86
2022/08/26 12:06:59;;;;;;;9.60;2.28;;;22.40;99.90;;;;;;6176984;22;20024;-86
2022/08/26 12:09:33;;;;;;;7.47;2.03;;;22.50;99.90;;;;;;6176578;22;20106;-86
2022/08/26 12:12:20;;;;;;;9.07;2.38;;;22.60;99.90;;;;;;6176909;22;20063;-86
2022/08/26 12:14:46;;;;;;;9.18;2.38;;;22.70;99.90;;;;;;6176448;22;20067;-87
2022/08/26 12:17:15;;;;;;;11.98;2.50;;;22.60;99.90;;;;;;6176292;23;20367;-86
2022/08/26 12:19:41;;;;;;;8.30;2.25;;;22.60;99.90;;;;;;6174434;23;20025;-86
2022/08/26 12:22:21;;;;;;;10.88;3.17;;;22.50;99.90;;;;;;6176416;23;20017;-86
2022/08/26 12:24:54;;;;;;;10.20;2.25;;;22.50;99.90;;;;;;6176017;22;20013;-86
2022/08/26 12:27:21;;;;;;;5.45;1.90;;;22.40;99.90;;;;;;6176695;23;20016;-86
2022/08/26 12:30:23;;;;;;;9.80;2.60;;;22.30;99.90;;;;;;6176709;23;20032;-86
2022/08/26 12:32:50;;;;;;;10.98;2.08;;;22.20;99.90;;;;;;6207769;23;20013;-86
2022/08/26 12:35:18;;;;;;;7.63;2.00;;;22.10;99.90;;;;;;6182915;23;20584;-86
2022/08/26 12:37:50;;;;;;;9.15;1.98;;;22.00;99.90;;;;;;6183116;23;20024;-87
2022/08/26 12:40:42;;;;;;;10.00;1.85;;;21.90;99.90;;;;;;6208516;23;20035;-86
2022/08/26 12:43:09;;;;;;;7.63;1.60;;;21.80;99.90;;;;;;6183447;23;20096;-86
2022/08/26 12:46:03;;;;;;;6.13;1.33;;;21.70;99.90;;;;;;6207598;23;20017;-86
2022/08/26 12:48:32;;;;;;;5.38;1.45;;;21.60;99.90;;;;;;6204180;23;20017;-86
2022/08/26 12:50:59;;;;;;;6.88;1.50;;;21.60;99.90;;;;;;6183115;23;20013;-86
2022/08/26 12:53:30;;;;;;;3.85;1.40;;;21.60;99.90;;;;;;6183144;23;20016;-86